Terminal Aerodrome Forecast
Issued by NWS Twin Cities, MN

Home | Current Version | Previous Version | Text Only | Print | Product List | Glossary Off
Versions: 1 2 3 4 5 6 7 8 9 10 11 12 13 14 15 16

000
FTUS43 KMPX 271120
TAFEAU
TAF
KEAU 271120Z 2712/2812 VRB02KT 1SM BR BKN003 OVC100
     FM271300 16005KT P6SM FEW090 SCT250
     FM271800 18008KT P6SM SCT050 BKN250
     FM280600 16004KT P6SM SCT040 BKN090
     FM281100 14005KT P6SM -SHRA SCT040 OVC080=

USA.gov is the U.S. government's official web portal to all federal, state and local government web resources and services.